Terminal Aerodrome Forecast
Issued by NWS

Home | Current Version | Previous Version | Text Only | Print | Product List | Glossary On
Versions: 1 2 3 4 5 6 7 8 9 10 11 12 13 14 15 16 17 18 19 20 21 22 23 24
738
FTUS46 KMFR 231006 AAB
TAFLMT
TAF AMD
KLMT 231006Z 2310/2406 27004KT P6SM VCSH BKN025 OVC035
     FM231200 VRB03KT P6SM SCT030 BKN050
     FM231800 32005KT P6SM SCT040
     FM240000 33004KT P6SM BKN250=

USA.gov is the U.S. government's official web portal to all federal, state and local government web resources and services.